sensor_id;sensor_type;location;lat;lon;timestamp;temperature;humidity
7307;DHT22;3694;48.732;9.248;2022-12-10T00:01:56;0.40;99.90
7307;DHT22;3694;48.732;9.248;2022-12-10T00:04:22;0.40;99.90
7307;DHT22;3694;48.732;9.248;2022-12-10T00:06:47;0.40;99.90
7307;DHT22;3694;48.732;9.248;2022-12-10T00:09:16;0.40;99.90
7307;DHT22;3694;48.732;9.248;2022-12-10T00:11:42;0.50;99.90
7307;DHT22;3694;48.732;9.248;2022-12-10T00:14:08;0.50;99.90
7307;DHT22;3694;48.732;9.248;2022-12-10T00:16:34;0.60;99.90
7307;DHT22;3694;48.732;9.248;2022-12-10T00:19:00;0.50;99.90
7307;DHT22;3694;48.732;9.248;2022-12-10T00:21:29;0.50;99.90
7307;DHT22;3694;48.732;9.248;2022-12-10T00:23:55;0.60;99.90
7307;DHT22;3694;48.732;9.248;2022-12-10T00:26:35;0.60;99.90
7307;DHT22;3694;48.732;9.248;2022-12-10T00:29:03;0.60;99.90
7307;DHT22;3694;48.732;9.248;2022-12-10T00:31:31;0.50;99.90
7307;DHT22;3694;48.732;9.248;2022-12-10T00:34:00;0.50;99.90
7307;DHT22;3694;48.732;9.248;2022-12-10T00:36:29;0.60;99.90
7307;DHT22;3694;48.732;9.248;2022-12-10T00:38:56;0.60;99.90
7307;DHT22;3694;48.732;9.248;2022-12-10T00:41:21;0.60;99.90
7307;DHT22;3694;48.732;9.248;2022-12-10T00:43:47;0.60;99.90
7307;DHT22;3694;48.732;9.248;2022-12-10T00:46:14;0.60;99.90
7307;DHT22;3694;48.732;9.248;2022-12-10T00:48:41;0.60;99.90
7307;DHT22;3694;48.732;9.248;2022-12-10T00:51:09;0.50;99.90
7307;DHT22;3694;48.732;9.248;2022-12-10T00:53:37;0.50;99.90
7307;DHT22;3694;48.732;9.248;2022-12-10T00:56:03;0.50;99.90
7307;DHT22;3694;48.732;9.248;2022-12-10T00:58:31;0.50;99.90
7307;DHT22;3694;48.732;9.248;2022-12-10T01:03:44;0.50;99.90
7307;DHT22;3694;48.732;9.248;2022-12-10T01:06:31;0.50;99.90
7307;DHT22;3694;48.732;9.248;2022-12-10T01:08:59;0.50;99.90
7307;DHT22;3694;48.732;9.248;2022-12-10T01:11:29;0.50;99.90
7307;DHT22;3694;48.732;9.248;2022-12-10T01:13:55;0.50;99.90
7307;DHT22;3694;48.732;9.248;2022-12-10T01:16:22;0.50;99.90
7307;DHT22;3694;48.732;9.248;2022-12-10T01:18:47;0.50;99.90
7307;DHT22;3694;48.732;9.248;2022-12-10T01:21:16;0.50;99.90
7307;DHT22;3694;48.732;9.248;2022-12-10T01:23:45;0.50;99.90
7307;DHT22;3694;48.732;9.248;2022-12-10T01:26:13;0.60;99.90
7307;DHT22;3694;48.732;9.248;2022-12-10T01:28:40;0.50;99.90
7307;DHT22;3694;48.732;9.248;2022-12-10T01:31:14;0.50;99.90
7307;DHT22;3694;48.732;9.248;2022-12-10T01:33:41;0.50;99.90
7307;DHT22;3694;48.732;9.248;2022-12-10T01:36:12;0.60;99.90
7307;DHT22;3694;48.732;9.248;2022-12-10T01:38:38;0.60;99.90
7307;DHT22;3694;48.732;9.248;2022-12-10T01:41:05;0.50;99.90
7307;DHT22;3694;48.732;9.248;2022-12-10T01:46:50;0.40;99.90
7307;DHT22;3694;48.732;9.248;2022-12-10T01:49:18;0.40;99.90
7307;DHT22;3694;48.732;9.248;2022-12-10T01:51:46;0.40;99.90
7307;DHT22;3694;48.732;9.248;2022-12-10T01:54:21;0.50;99.90
7307;DHT22;3694;48.732;9.248;2022-12-10T01:57:03;0.50;99.90
7307;DHT22;3694;48.732;9.248;2022-12-10T01:59:31;0.50;99.90
7307;DHT22;3694;48.732;9.248;2022-12-10T02:02:11;0.50;99.90
7307;DHT22;3694;48.732;9.248;2022-12-10T02:07:13;0.50;99.90
7307;DHT22;3694;48.732;9.248;2022-12-10T02:09:58;0.40;99.90
7307;DHT22;3694;48.732;9.248;2022-12-10T02:12:40;0.40;99.90
7307;DHT22;3694;48.732;9.248;2022-12-10T02:15:20;0.50;99.90
7307;DHT22;3694;48.732;9.248;2022-12-10T02:17:55;0.40;99.90
7307;DHT22;3694;48.732;9.248;2022-12-10T02:20:31;0.40;99.90
7307;DHT22;3694;48.732;9.248;2022-12-10T02:23:10;0.40;99.90
7307;DHT22;3694;48.732;9.248;2022-12-10T02:31:05;0.40;99.90
7307;DHT22;3694;48.732;9.248;2022-12-10T02:33:35;0.40;99.90
7307;DHT22;3694;48.732;9.248;2022-12-10T02:36:03;0.40;99.90
7307;DHT22;3694;48.732;9.248;2022-12-10T02:38:32;0.50;99.90
7307;DHT22;3694;48.732;9.248;2022-12-10T02:41:03;0.40;99.90
7307;DHT22;3694;48.732;9.248;2022-12-10T02:43:30;0.40;99.90
7307;DHT22;3694;48.732;9.248;2022-12-10T02:45:57;0.30;99.90
7307;DHT22;3694;48.732;9.248;2022-12-10T02:48:24;0.30;99.90
7307;DHT22;3694;48.732;9.248;2022-12-10T02:50:50;0.30;99.90
7307;DHT22;3694;48.732;9.248;2022-12-10T02:53:16;0.30;99.90
7307;DHT22;3694;48.732;9.248;2022-12-10T02:58:26;0.40;99.90
7307;DHT22;3694;48.732;9.248;2022-12-10T03:01:06;0.40;99.90
7307;DHT22;3694;48.732;9.248;2022-12-10T03:03:56;0.30;99.90
7307;DHT22;3694;48.732;9.248;2022-12-10T03:06:30;0.30;99.90
7307;DHT22;3694;48.732;9.248;2022-12-10T03:09:18;0.20;99.90
7307;DHT22;3694;48.732;9.248;2022-12-10T03:11:48;0.20;99.90
7307;DHT22;3694;48.732;9.248;2022-12-10T03:14:31;0.30;99.90
7307;DHT22;3694;48.732;9.248;2022-12-10T03:16:59;0.30;99.90
7307;DHT22;3694;48.732;9.248;2022-12-10T03:19:34;0.30;99.90
7307;DHT22;3694;48.732;9.248;2022-12-10T03:22:02;0.50;99.90
7307;DHT22;3694;48.732;9.248;2022-12-10T03:24:28;0.30;99.90
7307;DHT22;3694;48.732;9.248;2022-12-10T03:26:54;0.30;99.90
7307;DHT22;3694;48.732;9.248;2022-12-10T03:29:26;0.30;99.90
7307;DHT22;3694;48.732;9.248;2022-12-10T03:31:53;0.30;99.90
7307;DHT22;3694;48.732;9.248;2022-12-10T03:34:19;0.30;99.90
7307;DHT22;3694;48.732;9.248;2022-12-10T03:36:45;0.30;99.90
7307;DHT22;3694;48.732;9.248;2022-12-10T03:39:11;0.30;99.90
7307;DHT22;3694;48.732;9.248;2022-12-10T03:41:38;0.30;99.90
7307;DHT22;3694;48.732;9.248;2022-12-10T03:44:03;0.20;99.90
7307;DHT22;3694;48.732;9.248;2022-12-10T03:46:30;0.30;99.90
7307;DHT22;3694;48.732;9.248;2022-12-10T03:48:57;0.20;99.90
7307;DHT22;3694;48.732;9.248;2022-12-10T03:51:23;0.20;99.90
7307;DHT22;3694;48.732;9.248;2022-12-10T03:53:48;0.20;99.90
7307;DHT22;3694;48.732;9.248;2022-12-10T03:56:15;0.10;99.90
7307;DHT22;3694;48.732;9.248;2022-12-10T03:58:41;0.10;99.90
7307;DHT22;3694;48.732;9.248;2022-12-10T04:01:07;0.20;99.90
7307;DHT22;3694;48.732;9.248;2022-12-10T04:03:40;0.10;99.90
7307;DHT22;3694;48.732;9.248;2022-12-10T04:06:08;0.20;99.90
7307;DHT22;3694;48.732;9.248;2022-12-10T04:08:35;0.20;99.90
7307;DHT22;3694;48.732;9.248;2022-12-10T04:11:09;0.10;99.90
7307;DHT22;3694;48.732;9.248;2022-12-10T04:13:38;0.20;99.90
7307;DHT22;3694;48.732;9.248;2022-12-10T04:16:23;0.20;99.90
7307;DHT22;3694;48.732;9.248;2022-12-10T04:18:51;0.20;99.90
7307;DHT22;3694;48.732;9.248;2022-12-10T04:21:17;0.30;99.90
7307;DHT22;3694;48.732;9.248;2022-12-10T04:24:01;0.20;99.90
7307;DHT22;3694;48.732;9.248;2022-12-10T04:26:45;0.20;99.90
7307;DHT22;3694;48.732;9.248;2022-12-10T04:29:22;0.10;99.90
7307;DHT22;3694;48.732;9.248;2022-12-10T04:31:48;0.10;99.90
7307;DHT22;3694;48.732;9.248;2022-12-10T04:34:14;0.00;99.90
7307;DHT22;3694;48.732;9.248;2022-12-10T04:36:39;0.00;99.90
7307;DHT22;3694;48.732;9.248;2022-12-10T04:39:05;0.00;99.90
7307;DHT22;3694;48.732;9.248;2022-12-10T04:41:31;0.00;99.90
7307;DHT22;3694;48.732;9.248;2022-12-10T04:43:56;0.00;99.90
7307;DHT22;3694;48.732;9.248;2022-12-10T04:46:22;0.00;99.90
7307;DHT22;3694;48.732;9.248;2022-12-10T04:48:47;0.00;99.90
7307;DHT22;3694;48.732;9.248;2022-12-10T04:51:13;0.00;99.90
7307;DHT22;3694;48.732;9.248;2022-12-10T04:53:38;0.10;99.90
7307;DHT22;3694;48.732;9.248;2022-12-10T04:56:04;0.00;99.90
7307;DHT22;3694;48.732;9.248;2022-12-10T04:58:31;0.10;99.90
7307;DHT22;3694;48.732;9.248;2022-12-10T05:01:04;0.20;99.90
7307;DHT22;3694;48.732;9.248;2022-12-10T05:03:30;0.20;99.90
7307;DHT22;3694;48.732;9.248;2022-12-10T05:06:01;0.20;99.90
7307;DHT22;3694;48.732;9.248;2022-12-10T05:08:27;0.20;99.90
7307;DHT22;3694;48.732;9.248;2022-12-10T05:10:52;0.10;99.90
7307;DHT22;3694;48.732;9.248;2022-12-10T05:13:18;0.00;99.90
7307;DHT22;3694;48.732;9.248;2022-12-10T05:15:43;0.00;99.90
7307;DHT22;3694;48.732;9.248;2022-12-10T05:18:09;0.00;99.90
7307;DHT22;3694;48.732;9.248;2022-12-10T05:20:34;0.00;99.90
7307;DHT22;3694;48.732;9.248;2022-12-10T05:23:00;0.00;99.90
7307;DHT22;3694;48.732;9.248;2022-12-10T05:25:44;0.10;99.90
7307;DHT22;3694;48.732;9.248;2022-12-10T05:28:21;0.10;99.90
7307;DHT22;3694;48.732;9.248;2022-12-10T05:30:47;0.20;99.90
7307;DHT22;3694;48.732;9.248;2022-12-10T05:33:14;0.20;99.90
7307;DHT22;3694;48.732;9.248;2022-12-10T05:35:40;0.10;99.90
7307;DHT22;3694;48.732;9.248;2022-12-10T05:38:07;0.10;99.90
7307;DHT22;3694;48.732;9.248;2022-12-10T05:40:36;0.10;99.90
7307;DHT22;3694;48.732;9.248;2022-12-10T05:43:02;0.10;99.90
7307;DHT22;3694;48.732;9.248;2022-12-10T05:45:28;0.10;99.90
7307;DHT22;3694;48.732;9.248;2022-12-10T05:47:53;0.10;99.90
7307;DHT22;3694;48.732;9.248;2022-12-10T05:50:19;0.10;99.90
7307;DHT22;3694;48.732;9.248;2022-12-10T05:52:44;0.00;99.90
7307;DHT22;3694;48.732;9.248;2022-12-10T05:55:10;0.00;99.90
7307;DHT22;3694;48.732;9.248;2022-12-10T05:57:36;0.00;99.90
7307;DHT22;3694;48.732;9.248;2022-12-10T06:00:04;0.00;99.90
7307;DHT22;3694;48.732;9.248;2022-12-10T06:02:32;0.00;99.90
7307;DHT22;3694;48.732;9.248;2022-12-10T06:04:58;0.00;99.90
7307;DHT22;3694;48.732;9.248;2022-12-10T06:07:24;0.00;99.90
7307;DHT22;3694;48.732;9.248;2022-12-10T06:09:49;0.00;99.90
7307;DHT22;3694;48.732;9.248;2022-12-10T06:12:15;0.00;99.90
7307;DHT22;3694;48.732;9.248;2022-12-10T06:14:40;0.00;99.90
7307;DHT22;3694;48.732;9.248;2022-12-10T06:17:06;-0.10;99.90
7307;DHT22;3694;48.732;9.248;2022-12-10T06:19:31;-0.10;99.90
7307;DHT22;3694;48.732;9.248;2022-12-10T06:21:57;-0.10;99.90
7307;DHT22;3694;48.732;9.248;2022-12-10T06:24:24;-0.10;99.90
7307;DHT22;3694;48.732;9.248;2022-12-10T06:26:49;-0.10;99.90
7307;DHT22;3694;48.732;9.248;2022-12-10T06:29:16;-0.10;99.90
7307;DHT22;3694;48.732;9.248;2022-12-10T06:31:42;-0.10;99.90
7307;DHT22;3694;48.732;9.248;2022-12-10T06:34:07;-0.20;99.90
7307;DHT22;3694;48.732;9.248;2022-12-10T06:36:33;-0.20;99.90
7307;DHT22;3694;48.732;9.248;2022-12-10T06:38:58;-0.10;99.90
7307;DHT22;3694;48.732;9.248;2022-12-10T06:41:24;-0.30;99.90
7307;DHT22;3694;48.732;9.248;2022-12-10T06:43:50;-0.30;99.90
7307;DHT22;3694;48.732;9.248;2022-12-10T06:46:18;-0.20;99.90
7307;DHT22;3694;48.732;9.248;2022-12-10T06:48:44;-0.20;99.90
7307;DHT22;3694;48.732;9.248;2022-12-10T06:51:11;-0.20;99.90
7307;DHT22;3694;48.732;9.248;2022-12-10T06:53:38;-0.20;99.90
7307;DHT22;3694;48.732;9.248;2022-12-10T06:56:05;-0.30;99.90
7307;DHT22;3694;48.732;9.248;2022-12-10T06:58:32;-0.30;99.90
7307;DHT22;3694;48.732;9.248;2022-12-10T07:01:06;-0.20;99.90
7307;DHT22;3694;48.732;9.248;2022-12-10T07:03:32;-0.20;99.90
7307;DHT22;3694;48.732;9.248;2022-12-10T07:05:58;-0.20;99.90
7307;DHT22;3694;48.732;9.248;2022-12-10T07:08:24;-0.20;99.90
7307;DHT22;3694;48.732;9.248;2022-12-10T07:10:50;-0.20;99.90
7307;DHT22;3694;48.732;9.248;2022-12-10T07:13:15;-0.20;99.90
7307;DHT22;3694;48.732;9.248;2022-12-10T07:15:41;-0.30;99.90
7307;DHT22;3694;48.732;9.248;2022-12-10T07:18:06;-0.30;99.90
7307;DHT22;3694;48.732;9.248;2022-12-10T07:20:32;-0.20;99.90
7307;DHT22;3694;48.732;9.248;2022-12-10T07:22:57;-0.20;99.90
7307;DHT22;3694;48.732;9.248;2022-12-10T07:25:23;-0.30;99.90
7307;DHT22;3694;48.732;9.248;2022-12-10T07:27:48;-0.20;99.90
7307;DHT22;3694;48.732;9.248;2022-12-10T07:30:14;-0.20;99.90
7307;DHT22;3694;48.732;9.248;2022-12-10T07:32:39;-0.20;99.90
7307;DHT22;3694;48.732;9.248;2022-12-10T07:35:05;-0.30;99.90
7307;DHT22;3694;48.732;9.248;2022-12-10T07:37:31;-0.20;99.90
7307;DHT22;3694;48.732;9.248;2022-12-10T07:39:56;-0.20;99.90
7307;DHT22;3694;48.732;9.248;2022-12-10T07:42:22;-0.10;99.90
7307;DHT22;3694;48.732;9.248;2022-12-10T07:44:48;-0.10;99.90
7307;DHT22;3694;48.732;9.248;2022-12-10T07:47:14;-0.10;99.90
7307;DHT22;3694;48.732;9.248;2022-12-10T07:49:39;-0.10;99.90
7307;DHT22;3694;48.732;9.248;2022-12-10T07:52:05;0.00;99.90
7307;DHT22;3694;48.732;9.248;2022-12-10T07:54:30;0.20;99.90
7307;DHT22;3694;48.732;9.248;2022-12-10T07:56:56;0.00;99.90
7307;DHT22;3694;48.732;9.248;2022-12-10T07:59:21;0.10;99.90
7307;DHT22;3694;48.732;9.248;2022-12-10T08:01:47;0.10;99.90
7307;DHT22;3694;48.732;9.248;2022-12-10T08:04:14;0.10;99.90
7307;DHT22;3694;48.732;9.248;2022-12-10T08:06:40;0.10;99.90
7307;DHT22;3694;48.732;9.248;2022-12-10T08:09:05;0.20;99.90
7307;DHT22;3694;48.732;9.248;2022-12-10T08:11:32;0.20;99.90
7307;DHT22;3694;48.732;9.248;2022-12-10T08:13:57;0.50;99.90
7307;DHT22;3694;48.732;9.248;2022-12-10T08:16:26;0.20;99.90
7307;DHT22;3694;48.732;9.248;2022-12-10T08:18:52;0.20;99.90
7307;DHT22;3694;48.732;9.248;2022-12-10T08:21:20;0.30;99.90
7307;DHT22;3694;48.732;9.248;2022-12-10T08:23:46;0.30;99.90
7307;DHT22;3694;48.732;9.248;2022-12-10T08:26:21;0.40;99.90
7307;DHT22;3694;48.732;9.248;2022-12-10T08:28:48;0.40;99.90
7307;DHT22;3694;48.732;9.248;2022-12-10T08:31:15;0.40;99.90
7307;DHT22;3694;48.732;9.248;2022-12-10T08:33:41;0.40;99.90
7307;DHT22;3694;48.732;9.248;2022-12-10T08:36:10;0.40;99.90
7307;DHT22;3694;48.732;9.248;2022-12-10T08:38:36;0.40;99.90
7307;DHT22;3694;48.732;9.248;2022-12-10T08:41:12;0.30;99.90
7307;DHT22;3694;48.732;9.248;2022-12-10T08:43:38;0.30;99.90
7307;DHT22;3694;48.732;9.248;2022-12-10T08:46:04;0.30;99.90
7307;DHT22;3694;48.732;9.248;2022-12-10T08:48:31;0.40;99.90
7307;DHT22;3694;48.732;9.248;2022-12-10T08:50:57;0.40;99.90
7307;DHT22;3694;48.732;9.248;2022-12-10T08:53:23;0.50;99.90
7307;DHT22;3694;48.732;9.248;2022-12-10T08:55:52;0.50;99.90
7307;DHT22;3694;48.732;9.248;2022-12-10T08:58:18;0.60;99.90
7307;DHT22;3694;48.732;9.248;2022-12-10T09:00:44;0.60;99.90
7307;DHT22;3694;48.732;9.248;2022-12-10T09:03:10;0.60;99.90
7307;DHT22;3694;48.732;9.248;2022-12-10T09:05:36;0.60;99.90
7307;DHT22;3694;48.732;9.248;2022-12-10T09:08:02;0.70;99.90
7307;DHT22;3694;48.732;9.248;2022-12-10T09:10:28;0.70;99.90
7307;DHT22;3694;48.732;9.248;2022-12-10T09:12:54;0.70;99.90
7307;DHT22;3694;48.732;9.248;2022-12-10T09:15:19;0.70;99.90
7307;DHT22;3694;48.732;9.248;2022-12-10T09:17:45;0.70;99.90
7307;DHT22;3694;48.732;9.248;2022-12-10T09:20:10;0.70;99.90
7307;DHT22;3694;48.732;9.248;2022-12-10T09:22:36;0.60;99.90
7307;DHT22;3694;48.732;9.248;2022-12-10T09:25:06;0.70;99.90
7307;DHT22;3694;48.732;9.248;2022-12-10T09:27:32;0.60;99.90
7307;DHT22;3694;48.732;9.248;2022-12-10T09:29:58;1.40;99.90
7307;DHT22;3694;48.732;9.248;2022-12-10T09:32:23;0.70;99.90
7307;DHT22;3694;48.732;9.248;2022-12-10T09:34:52;0.70;99.90
7307;DHT22;3694;48.732;9.248;2022-12-10T09:37:18;0.70;99.90
7307;DHT22;3694;48.732;9.248;2022-12-10T09:39:43;0.70;99.90
7307;DHT22;3694;48.732;9.248;2022-12-10T09:47:37;0.90;99.90
7307;DHT22;3694;48.732;9.248;2022-12-10T09:50:48;0.90;99.90
7307;DHT22;3694;48.732;9.248;2022-12-10T09:53:18;0.90;99.90
7307;DHT22;3694;48.732;9.248;2022-12-10T09:55:46;0.90;99.90
7307;DHT22;3694;48.732;9.248;2022-12-10T09:58:20;0.80;99.90
7307;DHT22;3694;48.732;9.248;2022-12-10T10:00:50;0.90;99.90
7307;DHT22;3694;48.732;9.248;2022-12-10T10:03:17;0.90;99.90
7307;DHT22;3694;48.732;9.248;2022-12-10T10:05:46;0.90;99.90
7307;DHT22;3694;48.732;9.248;2022-12-10T10:08:20;1.00;99.90
7307;DHT22;3694;48.732;9.248;2022-12-10T10:10:47;1.00;99.90
7307;DHT22;3694;48.732;9.248;2022-12-10T10:16:00;1.00;99.90
7307;DHT22;3694;48.732;9.248;2022-12-10T10:18:34;1.00;99.90
7307;DHT22;3694;48.732;9.248;2022-12-10T10:21:11;1.00;99.90
7307;DHT22;3694;48.732;9.248;2022-12-10T10:23:39;0.90;99.90
7307;DHT22;3694;48.732;9.248;2022-12-10T10:26:06;1.00;99.90
7307;DHT22;3694;48.732;9.248;2022-12-10T10:28:31;1.00;99.90
7307;DHT22;3694;48.732;9.248;2022-12-10T10:30:57;1.00;99.90
7307;DHT22;3694;48.732;9.248;2022-12-10T10:33:22;1.10;99.90
7307;DHT22;3694;48.732;9.248;2022-12-10T10:35:50;1.00;99.90
7307;DHT22;3694;48.732;9.248;2022-12-10T10:38:27;1.10;99.90
7307;DHT22;3694;48.732;9.248;2022-12-10T10:40:56;1.20;99.90
7307;DHT22;3694;48.732;9.248;2022-12-10T10:43:28;1.30;99.90
7307;DHT22;3694;48.732;9.248;2022-12-10T10:46:02;1.30;99.90
7307;DHT22;3694;48.732;9.248;2022-12-10T10:48:30;1.40;99.90
7307;DHT22;3694;48.732;9.248;2022-12-10T10:51:15;1.40;99.90
7307;DHT22;3694;48.732;9.248;2022-12-10T10:53:52;1.60;99.90
7307;DHT22;3694;48.732;9.248;2022-12-10T10:56:32;1.70;99.90
7307;DHT22;3694;48.732;9.248;2022-12-10T11:01:55;1.70;99.90
7307;DHT22;3694;48.732;9.248;2022-12-10T11:04:37;1.70;99.90
7307;DHT22;3694;48.732;9.248;2022-12-10T11:07:37;1.70;99.90
7307;DHT22;3694;48.732;9.248;2022-12-10T11:13:14;1.70;99.90
7307;DHT22;3694;48.732;9.248;2022-12-10T11:15:43;1.70;99.90
7307;DHT22;3694;48.732;9.248;2022-12-10T11:21:19;1.60;99.90
7307;DHT22;3694;48.732;9.248;2022-12-10T11:23:57;1.60;99.90
7307;DHT22;3694;48.732;9.248;2022-12-10T11:29:39;1.60;99.90
7307;DHT22;3694;48.732;9.248;2022-12-10T11:32:31;1.70;99.90
7307;DHT22;3694;48.732;9.248;2022-12-10T11:35:19;1.80;99.90
7307;DHT22;3694;48.732;9.248;2022-12-10T11:38:05;1.80;99.90
7307;DHT22;3694;48.732;9.248;2022-12-10T11:54:12;1.90;99.90
7307;DHT22;3694;48.732;9.248;2022-12-10T11:56:44;1.90;99.90
7307;DHT22;3694;48.732;9.248;2022-12-10T11:59:34;1.80;99.90
7307;DHT22;3694;48.732;9.248;2022-12-10T12:02:25;1.80;99.90
7307;DHT22;3694;48.732;9.248;2022-12-10T12:13:33;1.70;99.90
7307;DHT22;3694;48.732;9.248;2022-12-10T12:16:05;1.70;99.90
7307;DHT22;3694;48.732;9.248;2022-12-10T12:21:16;1.70;99.90
7307;DHT22;3694;48.732;9.248;2022-12-10T12:24:06;1.70;99.90
7307;DHT22;3694;48.732;9.248;2022-12-10T12:26:54;1.80;99.90
7307;DHT22;3694;48.732;9.248;2022-12-10T12:29:35;1.90;99.90
7307;DHT22;3694;48.732;9.248;2022-12-10T12:32:05;1.90;99.90
7307;DHT22;3694;48.732;9.248;2022-12-10T12:35:10;1.90;99.90
7307;DHT22;3694;48.732;9.248;2022-12-10T12:43:32;1.80;99.90
7307;DHT22;3694;48.732;9.248;2022-12-10T12:46:02;1.80;99.90
7307;DHT22;3694;48.732;9.248;2022-12-10T12:48:55;1.80;99.90
7307;DHT22;3694;48.732;9.248;2022-12-10T12:51:29;1.70;99.90
7307;DHT22;3694;48.732;9.248;2022-12-10T12:53:56;1.70;99.90
7307;DHT22;3694;48.732;9.248;2022-12-10T13:02:41;1.90;99.90
7307;DHT22;3694;48.732;9.248;2022-12-10T13:05:30;1.90;99.90
7307;DHT22;3694;48.732;9.248;2022-12-10T13:13:36;1.70;99.90
7307;DHT22;3694;48.732;9.248;2022-12-10T13:16:45;1.70;99.90
7307;DHT22;3694;48.732;9.248;2022-12-10T13:32:16;1.50;99.90
7307;DHT22;3694;48.732;9.248;2022-12-10T13:34:43;1.50;99.90
7307;DHT22;3694;48.732;9.248;2022-12-10T13:37:17;1.40;99.90
7307;DHT22;3694;48.732;9.248;2022-12-10T13:42:26;1.40;99.90
7307;DHT22;3694;48.732;9.248;2022-12-10T13:47:49;1.40;99.90
7307;DHT22;3694;48.732;9.248;2022-12-10T13:50:19;1.40;99.90
7307;DHT22;3694;48.732;9.248;2022-12-10T13:58:34;1.20;99.90
7307;DHT22;3694;48.732;9.248;2022-12-10T14:06:23;1.10;99.90
7307;DHT22;3694;48.732;9.248;2022-12-10T14:11:25;1.00;99.90
7307;DHT22;3694;48.732;9.248;2022-12-10T14:13:55;0.90;99.90
7307;DHT22;3694;48.732;9.248;2022-12-10T14:16:23;0.80;99.90
7307;DHT22;3694;48.732;9.248;2022-12-10T14:18:54;0.70;99.90
7307;DHT22;3694;48.732;9.248;2022-12-10T14:21:20;0.70;99.90
7307;DHT22;3694;48.732;9.248;2022-12-10T14:23:48;0.60;99.90
7307;DHT22;3694;48.732;9.248;2022-12-10T14:26:16;0.80;99.90
7307;DHT22;3694;48.732;9.248;2022-12-10T14:31:35;0.60;99.90
7307;DHT22;3694;48.732;9.248;2022-12-10T14:34:05;0.60;99.90
7307;DHT22;3694;48.732;9.248;2022-12-10T14:36:35;0.60;99.90
7307;DHT22;3694;48.732;9.248;2022-12-10T14:39:02;0.50;99.90
7307;DHT22;3694;48.732;9.248;2022-12-10T14:41:30;0.50;99.90
7307;DHT22;3694;48.732;9.248;2022-12-10T14:44:01;0.50;99.90
7307;DHT22;3694;48.732;9.248;2022-12-10T14:46:30;0.50;99.90
7307;DHT22;3694;48.732;9.248;2022-12-10T14:48:56;0.50;99.90
7307;DHT22;3694;48.732;9.248;2022-12-10T14:51:25;0.40;99.90
7307;DHT22;3694;48.732;9.248;2022-12-10T14:53:52;0.50;99.90
7307;DHT22;3694;48.732;9.248;2022-12-10T14:56:27;0.40;99.90
7307;DHT22;3694;48.732;9.248;2022-12-10T14:59:34;0.30;99.90
7307;DHT22;3694;48.732;9.248;2022-12-10T15:01:54;0.30;99.90
7307;DHT22;3694;48.732;9.248;2022-12-10T15:04:22;0.30;99.90
7307;DHT22;3694;48.732;9.248;2022-12-10T15:06:49;0.30;99.90
7307;DHT22;3694;48.732;9.248;2022-12-10T15:09:19;0.20;99.90
7307;DHT22;3694;48.732;9.248;2022-12-10T15:11:51;0.20;99.90
7307;DHT22;3694;48.732;9.248;2022-12-10T15:14:19;0.20;99.90
7307;DHT22;3694;48.732;9.248;2022-12-10T15:16:46;0.20;99.90
7307;DHT22;3694;48.732;9.248;2022-12-10T15:21:59;0.10;99.90
7307;DHT22;3694;48.732;9.248;2022-12-10T15:24:37;0.20;99.90
7307;DHT22;3694;48.732;9.248;2022-12-10T15:27:18;0.10;99.90
7307;DHT22;3694;48.732;9.248;2022-12-10T15:29:44;0.00;99.90
7307;DHT22;3694;48.732;9.248;2022-12-10T15:32:26;0.10;99.90
7307;DHT22;3694;48.732;9.248;2022-12-10T15:34:55;0.00;99.90
7307;DHT22;3694;48.732;9.248;2022-12-10T15:37:35;0.00;99.90
7307;DHT22;3694;48.732;9.248;2022-12-10T15:40:06;-0.10;99.90
7307;DHT22;3694;48.732;9.248;2022-12-10T15:42:41;0.00;99.90
7307;DHT22;3694;48.732;9.248;2022-12-10T15:45:37;0.00;99.90
7307;DHT22;3694;48.732;9.248;2022-12-10T15:48:11;0.00;99.90
7307;DHT22;3694;48.732;9.248;2022-12-10T15:50:38;0.00;99.90
7307;DHT22;3694;48.732;9.248;2022-12-10T15:53:04;0.00;99.90
7307;DHT22;3694;48.732;9.248;2022-12-10T15:55:29;0.00;99.90
7307;DHT22;3694;48.732;9.248;2022-12-10T15:57:55;0.00;99.90
7307;DHT22;3694;48.732;9.248;2022-12-10T16:00:23;0.00;99.90
7307;DHT22;3694;48.732;9.248;2022-12-10T16:02:58;-0.10;99.90
7307;DHT22;3694;48.732;9.248;2022-12-10T16:05:29;-0.10;99.90
7307;DHT22;3694;48.732;9.248;2022-12-10T16:07:56;-0.10;99.90
7307;DHT22;3694;48.732;9.248;2022-12-10T16:10:25;-0.10;99.90
7307;DHT22;3694;48.732;9.248;2022-12-10T16:15:24;-0.10;99.90
7307;DHT22;3694;48.732;9.248;2022-12-10T16:17:51;-0.10;99.90
7307;DHT22;3694;48.732;9.248;2022-12-10T16:20:27;-0.20;99.90
7307;DHT22;3694;48.732;9.248;2022-12-10T16:22:54;-0.20;99.90
7307;DHT22;3694;48.732;9.248;2022-12-10T16:25:21;-0.30;99.90
7307;DHT22;3694;48.732;9.248;2022-12-10T16:27:47;-0.30;99.90
7307;DHT22;3694;48.732;9.248;2022-12-10T16:30:22;-0.30;99.90
7307;DHT22;3694;48.732;9.248;2022-12-10T16:32:48;-0.30;99.90
7307;DHT22;3694;48.732;9.248;2022-12-10T16:35:15;-0.30;99.90
7307;DHT22;3694;48.732;9.248;2022-12-10T16:37:42;-0.30;99.90
7307;DHT22;3694;48.732;9.248;2022-12-10T16:40:09;-0.40;99.90
7307;DHT22;3694;48.732;9.248;2022-12-10T16:42:35;-0.40;99.90
7307;DHT22;3694;48.732;9.248;2022-12-10T16:45:00;-0.50;99.90
7307;DHT22;3694;48.732;9.248;2022-12-10T16:47:26;-0.50;99.90
7307;DHT22;3694;48.732;9.248;2022-12-10T16:49:51;-0.50;99.90
7307;DHT22;3694;48.732;9.248;2022-12-10T16:52:17;-0.50;99.90
7307;DHT22;3694;48.732;9.248;2022-12-10T16:54:43;-0.50;99.90
7307;DHT22;3694;48.732;9.248;2022-12-10T16:57:13;-0.40;99.90
7307;DHT22;3694;48.732;9.248;2022-12-10T16:59:39;-0.40;99.90
7307;DHT22;3694;48.732;9.248;2022-12-10T17:02:17;-0.40;99.90
7307;DHT22;3694;48.732;9.248;2022-12-10T17:04:43;-0.40;99.90
7307;DHT22;3694;48.732;9.248;2022-12-10T17:07:13;-0.40;99.90
7307;DHT22;3694;48.732;9.248;2022-12-10T17:09:39;-0.40;99.90
7307;DHT22;3694;48.732;9.248;2022-12-10T17:12:09;-0.30;99.90
7307;DHT22;3694;48.732;9.248;2022-12-10T17:14:42;-0.40;99.90
7307;DHT22;3694;48.732;9.248;2022-12-10T17:17:13;-0.30;99.90
7307;DHT22;3694;48.732;9.248;2022-12-10T17:19:39;-0.40;99.90
7307;DHT22;3694;48.732;9.248;2022-12-10T17:22:06;-0.40;99.90
7307;DHT22;3694;48.732;9.248;2022-12-10T17:24:32;-0.50;99.90
7307;DHT22;3694;48.732;9.248;2022-12-10T17:27:04;-0.40;99.90
7307;DHT22;3694;48.732;9.248;2022-12-10T17:29:36;-0.40;99.90
7307;DHT22;3694;48.732;9.248;2022-12-10T17:32:04;-0.50;99.90
7307;DHT22;3694;48.732;9.248;2022-12-10T17:34:30;-0.50;99.90
7307;DHT22;3694;48.732;9.248;2022-12-10T17:36:55;-0.60;99.90
7307;DHT22;3694;48.732;9.248;2022-12-10T17:39:22;-0.70;99.90
7307;DHT22;3694;48.732;9.248;2022-12-10T17:41:50;-0.60;99.90
7307;DHT22;3694;48.732;9.248;2022-12-10T17:44:16;-0.60;99.90
7307;DHT22;3694;48.732;9.248;2022-12-10T17:46:42;-0.70;99.90
7307;DHT22;3694;48.732;9.248;2022-12-10T17:49:11;-0.70;99.90
7307;DHT22;3694;48.732;9.248;2022-12-10T17:51:37;-0.70;99.90
7307;DHT22;3694;48.732;9.248;2022-12-10T17:54:03;-0.70;99.90
7307;DHT22;3694;48.732;9.248;2022-12-10T17:56:29;-0.70;99.90
7307;DHT22;3694;48.732;9.248;2022-12-10T17:58:55;-0.70;99.90
7307;DHT22;3694;48.732;9.248;2022-12-10T18:01:21;-0.70;99.90
7307;DHT22;3694;48.732;9.248;2022-12-10T18:03:47;-0.70;99.90
7307;DHT22;3694;48.732;9.248;2022-12-10T18:06:27;-0.70;99.90
7307;DHT22;3694;48.732;9.248;2022-12-10T18:08:55;-0.70;99.90
7307;DHT22;3694;48.732;9.248;2022-12-10T18:11:24;-0.70;99.90
7307;DHT22;3694;48.732;9.248;2022-12-10T18:13:50;-0.70;99.90
7307;DHT22;3694;48.732;9.248;2022-12-10T18:16:24;-0.70;99.90
7307;DHT22;3694;48.732;9.248;2022-12-10T18:18:53;-0.80;99.90
7307;DHT22;3694;48.732;9.248;2022-12-10T18:21:20;-0.80;99.90
7307;DHT22;3694;48.732;9.248;2022-12-10T18:23:46;-0.90;99.90
7307;DHT22;3694;48.732;9.248;2022-12-10T18:26:14;-0.90;99.90
7307;DHT22;3694;48.732;9.248;2022-12-10T18:28:41;-1.00;99.90
7307;DHT22;3694;48.732;9.248;2022-12-10T18:31:14;-1.00;99.90